sensor_id;sensor_type;location;lat;lon;timestamp;P1;durP1;ratioP1;P2;durP2;ratioP2
18804;SDS011;9530;48.930;9.526;2023-03-14T00:02:15;1.43;;;1.13;;
18804;SDS011;9530;48.930;9.526;2023-03-14T00:04:42;1.70;;;1.60;;
18804;SDS011;9530;48.930;9.526;2023-03-14T00:07:10;3.73;;;1.60;;
18804;SDS011;9530;48.930;9.526;2023-03-14T00:09:38;1.60;;;1.23;;
18804;SDS011;9530;48.930;9.526;2023-03-14T00:12:05;1.27;;;0.93;;
18804;SDS011;9530;48.930;9.526;2023-03-14T00:14:32;1.77;;;1.00;;
18804;SDS011;9530;48.930;9.526;2023-03-14T00:16:59;3.07;;;1.20;;
18804;SDS011;9530;48.930;9.526;2023-03-14T00:19:26;1.43;;;0.90;;
18804;SDS011;9530;48.930;9.526;2023-03-14T00:21:52;1.90;;;1.00;;
18804;SDS011;9530;48.930;9.526;2023-03-14T00:24:19;0.80;;;0.70;;
18804;SDS011;9530;48.930;9.526;2023-03-14T00:26:47;1.07;;;0.90;;
18804;SDS011;9530;48.930;9.526;2023-03-14T00:29:14;1.60;;;0.93;;
18804;SDS011;9530;48.930;9.526;2023-03-14T00:31:40;2.63;;;1.10;;
18804;SDS011;9530;48.930;9.526;2023-03-14T00:34:07;1.10;;;0.80;;
18804;SDS011;9530;48.930;9.526;2023-03-14T00:36:33;0.73;;;0.70;;
18804;SDS011;9530;48.930;9.526;2023-03-14T00:39:00;1.90;;;0.80;;
18804;SDS011;9530;48.930;9.526;2023-03-14T00:41:27;0.80;;;0.60;;
18804;SDS011;9530;48.930;9.526;2023-03-14T00:43:55;1.00;;;0.80;;
18804;SDS011;9530;48.930;9.526;2023-03-14T00:46:21;1.60;;;1.00;;
18804;SDS011;9530;48.930;9.526;2023-03-14T00:48:48;1.77;;;0.90;;
18804;SDS011;9530;48.930;9.526;2023-03-14T00:51:15;0.70;;;0.70;;
18804;SDS011;9530;48.930;9.526;2023-03-14T00:53:42;0.70;;;0.70;;
18804;SDS011;9530;48.930;9.526;2023-03-14T00:56:09;0.70;;;0.70;;
18804;SDS011;9530;48.930;9.526;2023-03-14T00:58:37;0.93;;;0.70;;
18804;SDS011;9530;48.930;9.526;2023-03-14T01:01:07;1.87;;;0.63;;
18804;SDS011;9530;48.930;9.526;2023-03-14T01:03:34;1.20;;;0.60;;
18804;SDS011;9530;48.930;9.526;2023-03-14T01:06:11;0.80;;;0.60;;
18804;SDS011;9530;48.930;9.526;2023-03-14T01:08:39;1.10;;;0.70;;
18804;SDS011;9530;48.930;9.526;2023-03-14T01:11:07;0.73;;;0.60;;
18804;SDS011;9530;48.930;9.526;2023-03-14T01:13:35;0.93;;;0.60;;
18804;SDS011;9530;48.930;9.526;2023-03-14T01:16:02;0.60;;;0.60;;
18804;SDS011;9530;48.930;9.526;2023-03-14T01:18:33;0.80;;;0.63;;
18804;SDS011;9530;48.930;9.526;2023-03-14T01:21:00;1.50;;;0.77;;
18804;SDS011;9530;48.930;9.526;2023-03-14T01:23:27;2.10;;;0.70;;
18804;SDS011;9530;48.930;9.526;2023-03-14T01:25:54;1.53;;;0.70;;
18804;SDS011;9530;48.930;9.526;2023-03-14T01:28:21;1.67;;;0.60;;
18804;SDS011;9530;48.930;9.526;2023-03-14T01:30:47;1.00;;;0.80;;
18804;SDS011;9530;48.930;9.526;2023-03-14T01:33:14;0.70;;;0.60;;
18804;SDS011;9530;48.930;9.526;2023-03-14T01:35:42;1.90;;;0.60;;
18804;SDS011;9530;48.930;9.526;2023-03-14T01:38:09;2.40;;;0.73;;
18804;SDS011;9530;48.930;9.526;2023-03-14T01:40:41;0.50;;;0.50;;
18804;SDS011;9530;48.930;9.526;2023-03-14T01:43:13;0.90;;;0.70;;
18804;SDS011;9530;48.930;9.526;2023-03-14T01:48:52;1.03;;;0.70;;
18804;SDS011;9530;48.930;9.526;2023-03-14T01:51:25;0.70;;;0.70;;
18804;SDS011;9530;48.930;9.526;2023-03-14T01:53:58;0.50;;;0.50;;
18804;SDS011;9530;48.930;9.526;2023-03-14T01:56:30;1.03;;;0.70;;
18804;SDS011;9530;48.930;9.526;2023-03-14T01:58:57;0.80;;;0.77;;
18804;SDS011;9530;48.930;9.526;2023-03-14T02:01:25;1.20;;;1.10;;
18804;SDS011;9530;48.930;9.526;2023-03-14T02:03:53;0.80;;;0.80;;
18804;SDS011;9530;48.930;9.526;2023-03-14T02:06:22;1.43;;;0.77;;
18804;SDS011;9530;48.930;9.526;2023-03-14T02:08:55;1.00;;;0.97;;
18804;SDS011;9530;48.930;9.526;2023-03-14T02:11:22;1.43;;;0.77;;
18804;SDS011;9530;48.930;9.526;2023-03-14T02:13:54;1.10;;;1.00;;
18804;SDS011;9530;48.930;9.526;2023-03-14T02:16:22;1.00;;;0.70;;
18804;SDS011;9530;48.930;9.526;2023-03-14T02:18:49;1.00;;;0.90;;
18804;SDS011;9530;48.930;9.526;2023-03-14T02:21:16;1.03;;;0.70;;
18804;SDS011;9530;48.930;9.526;2023-03-14T02:23:53;0.70;;;0.70;;
18804;SDS011;9530;48.930;9.526;2023-03-14T02:26:30;7.33;;;1.17;;
18804;SDS011;9530;48.930;9.526;2023-03-14T02:29:04;1.20;;;0.80;;
18804;SDS011;9530;48.930;9.526;2023-03-14T02:31:30;1.67;;;1.57;;
18804;SDS011;9530;48.930;9.526;2023-03-14T02:33:58;1.03;;;0.70;;
18804;SDS011;9530;48.930;9.526;2023-03-14T02:36:26;0.80;;;0.80;;
18804;SDS011;9530;48.930;9.526;2023-03-14T02:38:55;1.07;;;0.97;;
18804;SDS011;9530;48.930;9.526;2023-03-14T02:41:29;1.10;;;0.80;;
18804;SDS011;9530;48.930;9.526;2023-03-14T02:43:56;4.37;;;0.80;;
18804;SDS011;9530;48.930;9.526;2023-03-14T02:46:24;0.70;;;0.60;;
18804;SDS011;9530;48.930;9.526;2023-03-14T02:48:52;0.50;;;0.50;;
18804;SDS011;9530;48.930;9.526;2023-03-14T02:51:23;0.97;;;0.60;;
18804;SDS011;9530;48.930;9.526;2023-03-14T02:53:51;0.70;;;0.53;;
18804;SDS011;9530;48.930;9.526;2023-03-14T02:56:18;2.37;;;0.73;;
18804;SDS011;9530;48.930;9.526;2023-03-14T02:58:44;2.10;;;0.50;;
18804;SDS011;9530;48.930;9.526;2023-03-14T03:01:11;0.70;;;0.53;;
18804;SDS011;9530;48.930;9.526;2023-03-14T03:03:39;0.60;;;0.60;;
18804;SDS011;9530;48.930;9.526;2023-03-14T03:06:06;0.60;;;0.60;;
18804;SDS011;9530;48.930;9.526;2023-03-14T03:08:33;2.77;;;0.70;;
18804;SDS011;9530;48.930;9.526;2023-03-14T03:11:00;1.57;;;0.70;;
18804;SDS011;9530;48.930;9.526;2023-03-14T03:13:26;0.73;;;0.70;;
18804;SDS011;9530;48.930;9.526;2023-03-14T03:15:53;1.67;;;0.70;;
18804;SDS011;9530;48.930;9.526;2023-03-14T03:18:20;1.13;;;0.70;;
18804;SDS011;9530;48.930;9.526;2023-03-14T03:20:48;0.60;;;0.50;;
18804;SDS011;9530;48.930;9.526;2023-03-14T03:23:14;1.10;;;0.70;;
18804;SDS011;9530;48.930;9.526;2023-03-14T03:25:41;1.33;;;0.80;;
18804;SDS011;9530;48.930;9.526;2023-03-14T03:28:08;1.10;;;0.70;;
18804;SDS011;9530;48.930;9.526;2023-03-14T03:30:38;1.93;;;0.70;;
18804;SDS011;9530;48.930;9.526;2023-03-14T03:33:05;1.27;;;0.70;;
18804;SDS011;9530;48.930;9.526;2023-03-14T03:35:31;1.10;;;0.60;;
18804;SDS011;9530;48.930;9.526;2023-03-14T03:37:59;0.97;;;0.60;;
18804;SDS011;9530;48.930;9.526;2023-03-14T03:40:26;1.13;;;0.60;;
18804;SDS011;9530;48.930;9.526;2023-03-14T03:42:53;0.67;;;0.60;;
18804;SDS011;9530;48.930;9.526;2023-03-14T03:45:20;1.03;;;0.70;;
18804;SDS011;9530;48.930;9.526;2023-03-14T03:47:46;1.27;;;0.60;;
18804;SDS011;9530;48.930;9.526;2023-03-14T03:50:13;1.10;;;0.70;;
18804;SDS011;9530;48.930;9.526;2023-03-14T03:52:40;2.03;;;0.60;;
18804;SDS011;9530;48.930;9.526;2023-03-14T03:55:08;1.23;;;0.80;;
18804;SDS011;9530;48.930;9.526;2023-03-14T03:57:35;0.90;;;0.67;;
18804;SDS011;9530;48.930;9.526;2023-03-14T04:00:02;1.90;;;0.70;;
18804;SDS011;9530;48.930;9.526;2023-03-14T04:02:30;0.83;;;0.77;;
18804;SDS011;9530;48.930;9.526;2023-03-14T04:04:57;1.73;;;0.80;;
18804;SDS011;9530;48.930;9.526;2023-03-14T04:07:24;0.70;;;0.70;;
18804;SDS011;9530;48.930;9.526;2023-03-14T04:09:50;1.60;;;0.73;;
18804;SDS011;9530;48.930;9.526;2023-03-14T04:12:18;1.23;;;0.70;;
18804;SDS011;9530;48.930;9.526;2023-03-14T04:14:45;3.10;;;0.93;;
18804;SDS011;9530;48.930;9.526;2023-03-14T04:17:12;1.43;;;0.77;;
18804;SDS011;9530;48.930;9.526;2023-03-14T04:19:39;2.00;;;1.40;;
18804;SDS011;9530;48.930;9.526;2023-03-14T04:22:05;3.40;;;0.97;;
18804;SDS011;9530;48.930;9.526;2023-03-14T04:24:32;1.80;;;1.07;;
18804;SDS011;9530;48.930;9.526;2023-03-14T04:26:59;3.27;;;1.13;;
18804;SDS011;9530;48.930;9.526;2023-03-14T04:29:27;2.57;;;1.00;;
18804;SDS011;9530;48.930;9.526;2023-03-14T04:31:53;1.70;;;1.00;;
18804;SDS011;9530;48.930;9.526;2023-03-14T04:34:20;1.70;;;1.00;;
18804;SDS011;9530;48.930;9.526;2023-03-14T04:36:46;2.20;;;0.90;;
18804;SDS011;9530;48.930;9.526;2023-03-14T04:39:13;2.63;;;1.07;;
18804;SDS011;9530;48.930;9.526;2023-03-14T04:41:40;3.93;;;1.10;;
18804;SDS011;9530;48.930;9.526;2023-03-14T04:44:06;2.73;;;1.00;;
18804;SDS011;9530;48.930;9.526;2023-03-14T04:46:34;2.10;;;1.47;;
18804;SDS011;9530;48.930;9.526;2023-03-14T04:49:01;3.70;;;2.00;;
18804;SDS011;9530;48.930;9.526;2023-03-14T04:51:28;3.47;;;1.20;;
18804;SDS011;9530;48.930;9.526;2023-03-14T04:53:55;2.53;;;1.30;;
18804;SDS011;9530;48.930;9.526;2023-03-14T04:56:21;3.23;;;1.20;;
18804;SDS011;9530;48.930;9.526;2023-03-14T04:58:48;3.07;;;1.40;;
18804;SDS011;9530;48.930;9.526;2023-03-14T05:01:15;3.47;;;1.53;;
18804;SDS011;9530;48.930;9.526;2023-03-14T05:03:44;1.97;;;1.20;;
18804;SDS011;9530;48.930;9.526;2023-03-14T05:06:10;3.50;;;1.50;;
18804;SDS011;9530;48.930;9.526;2023-03-14T05:08:37;4.23;;;1.40;;
18804;SDS011;9530;48.930;9.526;2023-03-14T05:11:04;4.37;;;1.30;;
18804;SDS011;9530;48.930;9.526;2023-03-14T05:13:31;2.73;;;1.40;;
18804;SDS011;9530;48.930;9.526;2023-03-14T05:16:03;3.93;;;1.67;;
18804;SDS011;9530;48.930;9.526;2023-03-14T05:18:30;2.87;;;1.70;;
18804;SDS011;9530;48.930;9.526;2023-03-14T05:20:58;3.10;;;1.30;;
18804;SDS011;9530;48.930;9.526;2023-03-14T05:23:25;2.73;;;1.30;;
18804;SDS011;9530;48.930;9.526;2023-03-14T05:25:52;4.67;;;1.53;;
18804;SDS011;9530;48.930;9.526;2023-03-14T05:28:19;3.30;;;1.60;;
18804;SDS011;9530;48.930;9.526;2023-03-14T05:30:46;3.37;;;1.47;;
18804;SDS011;9530;48.930;9.526;2023-03-14T05:33:13;3.97;;;1.50;;
18804;SDS011;9530;48.930;9.526;2023-03-14T05:35:40;8.27;;;1.90;;
18804;SDS011;9530;48.930;9.526;2023-03-14T05:38:09;4.47;;;1.75;;
18804;SDS011;9530;48.930;9.526;2023-03-14T05:40:35;5.50;;;1.90;;
18804;SDS011;9530;48.930;9.526;2023-03-14T05:43:02;8.67;;;2.50;;
18804;SDS011;9530;48.930;9.526;2023-03-14T05:45:29;4.37;;;2.00;;
18804;SDS011;9530;48.930;9.526;2023-03-14T05:47:55;5.70;;;3.20;;
18804;SDS011;9530;48.930;9.526;2023-03-14T05:50:22;5.00;;;1.70;;
18804;SDS011;9530;48.930;9.526;2023-03-14T05:52:49;3.27;;;1.37;;
18804;SDS011;9530;48.930;9.526;2023-03-14T05:55:17;2.00;;;1.30;;
18804;SDS011;9530;48.930;9.526;2023-03-14T05:57:43;2.80;;;1.20;;
18804;SDS011;9530;48.930;9.526;2023-03-14T06:00:10;3.63;;;1.10;;
18804;SDS011;9530;48.930;9.526;2023-03-14T06:02:38;4.37;;;1.20;;
18804;SDS011;9530;48.930;9.526;2023-03-14T06:05:05;3.77;;;1.30;;
18804;SDS011;9530;48.930;9.526;2023-03-14T06:07:32;2.43;;;1.17;;
18804;SDS011;9530;48.930;9.526;2023-03-14T06:09:59;2.50;;;1.10;;
18804;SDS011;9530;48.930;9.526;2023-03-14T06:12:27;2.90;;;1.10;;
18804;SDS011;9530;48.930;9.526;2023-03-14T06:14:54;2.83;;;1.10;;
18804;SDS011;9530;48.930;9.526;2023-03-14T06:17:21;3.10;;;1.10;;
18804;SDS011;9530;48.930;9.526;2023-03-14T06:19:48;2.73;;;1.00;;
18804;SDS011;9530;48.930;9.526;2023-03-14T06:22:14;3.03;;;1.17;;
18804;SDS011;9530;48.930;9.526;2023-03-14T06:24:41;4.03;;;1.50;;
18804;SDS011;9530;48.930;9.526;2023-03-14T06:27:08;4.83;;;0.83;;
18804;SDS011;9530;48.930;9.526;2023-03-14T06:29:36;3.23;;;1.03;;
18804;SDS011;9530;48.930;9.526;2023-03-14T06:32:03;2.40;;;1.10;;
18804;SDS011;9530;48.930;9.526;2023-03-14T06:34:30;4.03;;;1.30;;
18804;SDS011;9530;48.930;9.526;2023-03-14T06:36:56;5.63;;;1.17;;
18804;SDS011;9530;48.930;9.526;2023-03-14T06:39:23;1.63;;;1.10;;
18804;SDS011;9530;48.930;9.526;2023-03-14T06:41:50;4.10;;;1.20;;
18804;SDS011;9530;48.930;9.526;2023-03-14T06:44:16;3.30;;;1.10;;
18804;SDS011;9530;48.930;9.526;2023-03-14T06:46:44;3.10;;;1.20;;
18804;SDS011;9530;48.930;9.526;2023-03-14T06:49:11;4.53;;;1.20;;
18804;SDS011;9530;48.930;9.526;2023-03-14T06:51:38;2.23;;;1.07;;
18804;SDS011;9530;48.930;9.526;2023-03-14T06:54:04;3.43;;;1.10;;
18804;SDS011;9530;48.930;9.526;2023-03-14T06:56:31;2.53;;;1.17;;
18804;SDS011;9530;48.930;9.526;2023-03-14T06:58:58;4.47;;;1.40;;
18804;SDS011;9530;48.930;9.526;2023-03-14T07:01:25;2.83;;;1.30;;
18804;SDS011;9530;48.930;9.526;2023-03-14T07:03:55;3.90;;;1.63;;
18804;SDS011;9530;48.930;9.526;2023-03-14T07:06:22;2.53;;;1.20;;
18804;SDS011;9530;48.930;9.526;2023-03-14T07:08:50;2.83;;;1.43;;
18804;SDS011;9530;48.930;9.526;2023-03-14T07:11:16;4.57;;;1.47;;
18804;SDS011;9530;48.930;9.526;2023-03-14T07:13:43;4.40;;;1.33;;
18804;SDS011;9530;48.930;9.526;2023-03-14T07:16:10;2.87;;;1.10;;
18804;SDS011;9530;48.930;9.526;2023-03-14T07:18:36;1.40;;;0.70;;
18804;SDS011;9530;48.930;9.526;2023-03-14T07:21:05;2.97;;;0.90;;
18804;SDS011;9530;48.930;9.526;2023-03-14T07:23:32;2.37;;;0.80;;
18804;SDS011;9530;48.930;9.526;2023-03-14T07:25:59;4.87;;;1.10;;
18804;SDS011;9530;48.930;9.526;2023-03-14T07:28:26;3.43;;;1.43;;
18804;SDS011;9530;48.930;9.526;2023-03-14T07:30:53;3.63;;;1.13;;
18804;SDS011;9530;48.930;9.526;2023-03-14T07:33:20;5.30;;;1.43;;
18804;SDS011;9530;48.930;9.526;2023-03-14T07:35:46;3.17;;;1.03;;
18804;SDS011;9530;48.930;9.526;2023-03-14T07:38:14;2.80;;;1.00;;
18804;SDS011;9530;48.930;9.526;2023-03-14T07:40:41;5.67;;;1.20;;
18804;SDS011;9530;48.930;9.526;2023-03-14T07:43:08;1.20;;;0.90;;
18804;SDS011;9530;48.930;9.526;2023-03-14T07:45:35;3.27;;;1.03;;
18804;SDS011;9530;48.930;9.526;2023-03-14T07:48:01;1.53;;;0.87;;
18804;SDS011;9530;48.930;9.526;2023-03-14T07:50:28;3.13;;;0.90;;
18804;SDS011;9530;48.930;9.526;2023-03-14T07:52:55;1.97;;;1.00;;
18804;SDS011;9530;48.930;9.526;2023-03-14T07:55:23;1.30;;;0.70;;
18804;SDS011;9530;48.930;9.526;2023-03-14T07:57:49;2.43;;;0.80;;
18804;SDS011;9530;48.930;9.526;2023-03-14T08:00:16;2.83;;;0.90;;
18804;SDS011;9530;48.930;9.526;2023-03-14T08:02:44;1.40;;;0.70;;
18804;SDS011;9530;48.930;9.526;2023-03-14T08:05:10;1.90;;;0.83;;
18804;SDS011;9530;48.930;9.526;2023-03-14T08:07:37;2.50;;;0.77;;
18804;SDS011;9530;48.930;9.526;2023-03-14T08:10:04;3.80;;;1.00;;
18804;SDS011;9530;48.930;9.526;2023-03-14T08:12:33;1.90;;;0.87;;
18804;SDS011;9530;48.930;9.526;2023-03-14T08:15:00;3.47;;;0.70;;
18804;SDS011;9530;48.930;9.526;2023-03-14T08:17:27;2.70;;;0.90;;
18804;SDS011;9530;48.930;9.526;2023-03-14T08:19:54;1.30;;;0.70;;
18804;SDS011;9530;48.930;9.526;2023-03-14T08:22:20;1.10;;;0.80;;
18804;SDS011;9530;48.930;9.526;2023-03-14T08:24:47;2.00;;;0.80;;
18804;SDS011;9530;48.930;9.526;2023-03-14T08:27:13;1.30;;;0.70;;
18804;SDS011;9530;48.930;9.526;2023-03-14T08:29:42;2.60;;;0.90;;
18804;SDS011;9530;48.930;9.526;2023-03-14T08:32:08;2.10;;;1.00;;
18804;SDS011;9530;48.930;9.526;2023-03-14T08:34:35;2.03;;;1.27;;
18804;SDS011;9530;48.930;9.526;2023-03-14T08:37:02;2.40;;;0.90;;
18804;SDS011;9530;48.930;9.526;2023-03-14T08:39:29;2.47;;;0.70;;
18804;SDS011;9530;48.930;9.526;2023-03-14T08:41:55;1.87;;;0.90;;
18804;SDS011;9530;48.930;9.526;2023-03-14T08:44:22;3.90;;;1.03;;
18804;SDS011;9530;48.930;9.526;2023-03-14T08:46:50;2.20;;;0.90;;
18804;SDS011;9530;48.930;9.526;2023-03-14T08:49:17;4.53;;;1.03;;
18804;SDS011;9530;48.930;9.526;2023-03-14T08:51:44;3.03;;;0.80;;
18804;SDS011;9530;48.930;9.526;2023-03-14T08:54:10;1.73;;;0.87;;
18804;SDS011;9530;48.930;9.526;2023-03-14T08:56:37;1.67;;;0.80;;
18804;SDS011;9530;48.930;9.526;2023-03-14T08:59:04;3.30;;;0.73;;
18804;SDS011;9530;48.930;9.526;2023-03-14T09:01:31;2.00;;;0.83;;
18804;SDS011;9530;48.930;9.526;2023-03-14T09:03:59;2.20;;;0.90;;
18804;SDS011;9530;48.930;9.526;2023-03-14T09:06:26;2.50;;;0.70;;
18804;SDS011;9530;48.930;9.526;2023-03-14T09:08:52;1.70;;;0.90;;
18804;SDS011;9530;48.930;9.526;2023-03-14T09:11:19;1.30;;;0.80;;
18804;SDS011;9530;48.930;9.526;2023-03-14T09:13:46;2.10;;;0.90;;
18804;SDS011;9530;48.930;9.526;2023-03-14T09:16:13;1.13;;;0.70;;
18804;SDS011;9530;48.930;9.526;2023-03-14T09:18:40;1.53;;;0.90;;
18804;SDS011;9530;48.930;9.526;2023-03-14T09:21:08;2.70;;;0.70;;
18804;SDS011;9530;48.930;9.526;2023-03-14T09:23:35;0.60;;;0.50;;
18804;SDS011;9530;48.930;9.526;2023-03-14T09:26:01;0.90;;;0.60;;
18804;SDS011;9530;48.930;9.526;2023-03-14T09:28:28;1.10;;;0.50;;
18804;SDS011;9530;48.930;9.526;2023-03-14T09:30:55;1.67;;;0.80;;
18804;SDS011;9530;48.930;9.526;2023-03-14T09:33:22;1.27;;;0.70;;
18804;SDS011;9530;48.930;9.526;2023-03-14T09:35:48;2.07;;;0.70;;
18804;SDS011;9530;48.930;9.526;2023-03-14T09:38:16;0.87;;;0.70;;
18804;SDS011;9530;48.930;9.526;2023-03-14T09:40:45;1.50;;;0.60;;
18804;SDS011;9530;48.930;9.526;2023-03-14T09:43:12;1.70;;;0.70;;
18804;SDS011;9530;48.930;9.526;2023-03-14T09:45:41;1.10;;;0.60;;
18804;SDS011;9530;48.930;9.526;2023-03-14T09:48:12;1.47;;;0.73;;
18804;SDS011;9530;48.930;9.526;2023-03-14T09:50:42;3.13;;;0.80;;
18804;SDS011;9530;48.930;9.526;2023-03-14T09:53:12;1.47;;;0.60;;
18804;SDS011;9530;48.930;9.526;2023-03-14T09:55:44;0.83;;;0.70;;
18804;SDS011;9530;48.930;9.526;2023-03-14T09:58:20;1.10;;;0.73;;
18804;SDS011;9530;48.930;9.526;2023-03-14T10:00:49;1.50;;;0.70;;
18804;SDS011;9530;48.930;9.526;2023-03-14T10:03:22;0.97;;;0.50;;
18804;SDS011;9530;48.930;9.526;2023-03-14T10:05:51;2.17;;;1.10;;
18804;SDS011;9530;48.930;9.526;2023-03-14T10:08:19;0.50;;;0.50;;
18804;SDS011;9530;48.930;9.526;2023-03-14T10:10:47;1.03;;;0.50;;
18804;SDS011;9530;48.930;9.526;2023-03-14T10:13:15;0.83;;;0.60;;
18804;SDS011;9530;48.930;9.526;2023-03-14T10:15:47;0.57;;;0.57;;
18804;SDS011;9530;48.930;9.526;2023-03-14T10:18:17;0.70;;;0.50;;
18804;SDS011;9530;48.930;9.526;2023-03-14T10:20:44;1.37;;;0.60;;
18804;SDS011;9530;48.930;9.526;2023-03-14T10:23:19;1.23;;;0.80;;
18804;SDS011;9530;48.930;9.526;2023-03-14T10:26:00;1.80;;;0.70;;
18804;SDS011;9530;48.930;9.526;2023-03-14T10:28:32;1.30;;;0.70;;
18804;SDS011;9530;48.930;9.526;2023-03-14T10:31:03;1.03;;;0.53;;
18804;SDS011;9530;48.930;9.526;2023-03-14T10:33:31;1.00;;;0.50;;
18804;SDS011;9530;48.930;9.526;2023-03-14T10:35:59;1.50;;;0.60;;
18804;SDS011;9530;48.930;9.526;2023-03-14T10:38:27;0.83;;;0.60;;
18804;SDS011;9530;48.930;9.526;2023-03-14T10:40:55;0.80;;;0.53;;
18804;SDS011;9530;48.930;9.526;2023-03-14T10:43:25;1.10;;;0.60;;
18804;SDS011;9530;48.930;9.526;2023-03-14T10:45:54;1.23;;;0.60;;
18804;SDS011;9530;48.930;9.526;2023-03-14T10:48:24;2.17;;;0.50;;
18804;SDS011;9530;48.930;9.526;2023-03-14T10:50:57;0.97;;;0.87;;
18804;SDS011;9530;48.930;9.526;2023-03-14T10:53:32;0.60;;;0.60;;
18804;SDS011;9530;48.930;9.526;2023-03-14T10:56:02;2.10;;;1.07;;
18804;SDS011;9530;48.930;9.526;2023-03-14T10:58:33;0.90;;;0.50;;
18804;SDS011;9530;48.930;9.526;2023-03-14T11:01:07;1.20;;;0.50;;
18804;SDS011;9530;48.930;9.526;2023-03-14T11:03:49;0.60;;;0.50;;
18804;SDS011;9530;48.930;9.526;2023-03-14T11:06:20;0.50;;;0.50;;
18804;SDS011;9530;48.930;9.526;2023-03-14T11:08:55;0.50;;;0.50;;
18804;SDS011;9530;48.930;9.526;2023-03-14T11:11:30;1.60;;;0.50;;
18804;SDS011;9530;48.930;9.526;2023-03-14T11:14:01;0.97;;;0.67;;
18804;SDS011;9530;48.930;9.526;2023-03-14T11:16:37;0.40;;;0.40;;
18804;SDS011;9530;48.930;9.526;2023-03-14T11:19:16;0.60;;;0.60;;
18804;SDS011;9530;48.930;9.526;2023-03-14T11:21:54;0.80;;;0.67;;
18804;SDS011;9530;48.930;9.526;2023-03-14T11:24:28;0.87;;;0.57;;
18804;SDS011;9530;48.930;9.526;2023-03-14T11:27:04;1.33;;;1.00;;
18804;SDS011;9530;48.930;9.526;2023-03-14T11:29:41;0.70;;;0.60;;
18804;SDS011;9530;48.930;9.526;2023-03-14T11:32:19;2.03;;;1.10;;
18804;SDS011;9530;48.930;9.526;2023-03-14T11:34:53;0.87;;;0.70;;
18804;SDS011;9530;48.930;9.526;2023-03-14T11:37:22;1.33;;;0.83;;
18804;SDS011;9530;48.930;9.526;2023-03-14T11:39:55;1.50;;;0.80;;
18804;SDS011;9530;48.930;9.526;2023-03-14T11:42:26;0.63;;;0.43;;
18804;SDS011;9530;48.930;9.526;2023-03-14T11:44:56;0.53;;;0.40;;
18804;SDS011;9530;48.930;9.526;2023-03-14T11:47:26;0.40;;;0.40;;
18804;SDS011;9530;48.930;9.526;2023-03-14T11:49:57;1.57;;;0.50;;
18804;SDS011;9530;48.930;9.526;2023-03-14T11:52:27;1.10;;;0.60;;
18804;SDS011;9530;48.930;9.526;2023-03-14T11:55:00;0.73;;;0.73;;
18804;SDS011;9530;48.930;9.526;2023-03-14T11:57:31;0.77;;;0.50;;
18804;SDS011;9530;48.930;9.526;2023-03-14T12:00:00;2.37;;;1.10;;
18804;SDS011;9530;48.930;9.526;2023-03-14T12:02:33;2.67;;;0.80;;
18804;SDS011;9530;48.930;9.526;2023-03-14T12:05:25;0.60;;;0.60;;
18804;SDS011;9530;48.930;9.526;2023-03-14T12:08:32;0.73;;;0.63;;
18804;SDS011;9530;48.930;9.526;2023-03-14T12:11:17;0.57;;;0.57;;
18804;SDS011;9530;48.930;9.526;2023-03-14T12:13:47;0.60;;;0.53;;
18804;SDS011;9530;48.930;9.526;2023-03-14T12:16:29;0.93;;;0.57;;
18804;SDS011;9530;48.930;9.526;2023-03-14T12:19:21;1.90;;;0.60;;
18804;SDS011;9530;48.930;9.526;2023-03-14T12:21:53;2.10;;;0.70;;
18804;SDS011;9530;48.930;9.526;2023-03-14T12:24:24;1.37;;;0.60;;
18804;SDS011;9530;48.930;9.526;2023-03-14T12:26:55;1.80;;;0.87;;
18804;SDS011;9530;48.930;9.526;2023-03-14T12:29:23;0.40;;;0.40;;
18804;SDS011;9530;48.930;9.526;2023-03-14T12:34:43;0.53;;;0.50;;
18804;SDS011;9530;48.930;9.526;2023-03-14T12:37:14;0.60;;;0.60;;
18804;SDS011;9530;48.930;9.526;2023-03-14T12:39:49;0.90;;;0.60;;
18804;SDS011;9530;48.930;9.526;2023-03-14T12:42:36;1.13;;;0.87;;
18804;SDS011;9530;48.930;9.526;2023-03-14T12:45:22;0.83;;;0.80;;
18804;SDS011;9530;48.930;9.526;2023-03-14T12:47:54;0.60;;;0.60;;
18804;SDS011;9530;48.930;9.526;2023-03-14T12:50:28;0.73;;;0.63;;
18804;SDS011;9530;48.930;9.526;2023-03-14T12:56:17;1.87;;;1.03;;
18804;SDS011;9530;48.930;9.526;2023-03-14T12:58:50;1.07;;;0.97;;
18804;SDS011;9530;48.930;9.526;2023-03-14T13:01:32;1.73;;;1.20;;
18804;SDS011;9530;48.930;9.526;2023-03-14T13:04:02;1.40;;;1.00;;
18804;SDS011;9530;48.930;9.526;2023-03-14T13:06:49;3.67;;;1.37;;
18804;SDS011;9530;48.930;9.526;2023-03-14T13:12:17;2.13;;;1.13;;
18804;SDS011;9530;48.930;9.526;2023-03-14T13:14:45;1.97;;;1.50;;
18804;SDS011;9530;48.930;9.526;2023-03-14T13:17:14;1.87;;;1.20;;
18804;SDS011;9530;48.930;9.526;2023-03-14T13:19:44;4.17;;;2.10;;
18804;SDS011;9530;48.930;9.526;2023-03-14T13:22:20;2.90;;;1.70;;
18804;SDS011;9530;48.930;9.526;2023-03-14T13:24:49;3.60;;;1.47;;
18804;SDS011;9530;48.930;9.526;2023-03-14T13:27:16;2.17;;;1.20;;
18804;SDS011;9530;48.930;9.526;2023-03-14T13:29:45;3.13;;;1.10;;
18804;SDS011;9530;48.930;9.526;2023-03-14T13:32:16;3.60;;;1.20;;
18804;SDS011;9530;48.930;9.526;2023-03-14T13:34:46;2.70;;;1.00;;
18804;SDS011;9530;48.930;9.526;2023-03-14T13:37:16;1.77;;;0.90;;
18804;SDS011;9530;48.930;9.526;2023-03-14T13:39:48;2.07;;;0.80;;
18804;SDS011;9530;48.930;9.526;2023-03-14T13:42:16;2.73;;;1.00;;
18804;SDS011;9530;48.930;9.526;2023-03-14T13:44:43;3.47;;;2.00;;
18804;SDS011;9530;48.930;9.526;2023-03-14T13:47:13;3.23;;;1.20;;
18804;SDS011;9530;48.930;9.526;2023-03-14T13:49:42;3.90;;;1.20;;
18804;SDS011;9530;48.930;9.526;2023-03-14T13:52:24;2.80;;;0.80;;
18804;SDS011;9530;48.930;9.526;2023-03-14T13:54:55;1.77;;;1.00;;
18804;SDS011;9530;48.930;9.526;2023-03-14T13:57:22;2.77;;;1.37;;
18804;SDS011;9530;48.930;9.526;2023-03-14T13:59:59;3.50;;;1.10;;
18804;SDS011;9530;48.930;9.526;2023-03-14T14:02:30;3.70;;;1.00;;
18804;SDS011;9530;48.930;9.526;2023-03-14T14:04:58;6.57;;;1.10;;
18804;SDS011;9530;48.930;9.526;2023-03-14T14:07:27;2.57;;;0.97;;
18804;SDS011;9530;48.930;9.526;2023-03-14T14:09:54;1.70;;;1.30;;
18804;SDS011;9530;48.930;9.526;2023-03-14T14:12:22;3.87;;;0.90;;
18804;SDS011;9530;48.930;9.526;2023-03-14T14:14:55;2.40;;;1.00;;
18804;SDS011;9530;48.930;9.526;2023-03-14T14:17:26;1.57;;;0.83;;
18804;SDS011;9530;48.930;9.526;2023-03-14T14:19:57;3.07;;;1.30;;
18804;SDS011;9530;48.930;9.526;2023-03-14T14:22:24;2.27;;;0.90;;
18804;SDS011;9530;48.930;9.526;2023-03-14T14:24:53;2.23;;;1.00;;
18804;SDS011;9530;48.930;9.526;2023-03-14T14:27:23;2.80;;;1.10;;
18804;SDS011;9530;48.930;9.526;2023-03-14T14:29:57;2.17;;;1.23;;
18804;SDS011;9530;48.930;9.526;2023-03-14T14:32:26;1.60;;;1.00;;
18804;SDS011;9530;48.930;9.526;2023-03-14T14:35:01;1.40;;;0.90;;
18804;SDS011;9530;48.930;9.526;2023-03-14T14:37:29;2.40;;;0.77;;
18804;SDS011;9530;48.930;9.526;2023-03-14T14:40:00;4.60;;;1.00;;
18804;SDS011;9530;48.930;9.526;2023-03-14T14:42:35;2.33;;;1.10;;
18804;SDS011;9530;48.930;9.526;2023-03-14T14:45:07;1.83;;;1.13;;
18804;SDS011;9530;48.930;9.526;2023-03-14T14:47:48;3.27;;;1.23;;
18804;SDS011;9530;48.930;9.526;2023-03-14T14:50:20;4.03;;;1.00;;
18804;SDS011;9530;48.930;9.526;2023-03-14T14:52:55;2.43;;;1.40;;
18804;SDS011;9530;48.930;9.526;2023-03-14T14:55:28;2.40;;;0.93;;
18804;SDS011;9530;48.930;9.526;2023-03-14T14:57:57;4.77;;;1.27;;
18804;SDS011;9530;48.930;9.526;2023-03-14T15:00:39;2.00;;;1.10;;
18804;SDS011;9530;48.930;9.526;2023-03-14T15:03:10;2.50;;;1.13;;
18804;SDS011;9530;48.930;9.526;2023-03-14T15:05:40;4.70;;;1.63;;
18804;SDS011;9530;48.930;9.526;2023-03-14T15:08:08;4.87;;;1.37;;
18804;SDS011;9530;48.930;9.526;2023-03-14T15:10:36;3.80;;;1.20;;
18804;SDS011;9530;48.930;9.526;2023-03-14T15:13:03;3.37;;;1.20;;
18804;SDS011;9530;48.930;9.526;2023-03-14T15:15:30;3.90;;;1.40;;
18804;SDS011;9530;48.930;9.526;2023-03-14T15:17:57;3.70;;;1.40;;
18804;SDS011;9530;48.930;9.526;2023-03-14T15:20:24;3.37;;;1.37;;
18804;SDS011;9530;48.930;9.526;2023-03-14T15:22:51;2.33;;;1.10;;
18804;SDS011;9530;48.930;9.526;2023-03-14T15:25:18;3.87;;;1.50;;